sensor_id;sensor_type;location;lat;lon;timestamp;P1;durP1;ratioP1;P2;durP2;ratioP2
75246;SDS011;63844;50.042;19.224;2023-03-04T00:02:08;41.40;;;12.20;;
75246;SDS011;63844;50.042;19.224;2023-03-04T00:04:34;43.80;;;13.40;;
75246;SDS011;63844;50.042;19.224;2023-03-04T00:07:01;47.70;;;13.60;;
75246;SDS011;63844;50.042;19.224;2023-03-04T00:09:27;51.80;;;14.70;;
75246;SDS011;63844;50.042;19.224;2023-03-04T00:11:54;39.90;;;11.60;;
75246;SDS011;63844;50.042;19.224;2023-03-04T00:14:20;44.70;;;12.70;;
75246;SDS011;63844;50.042;19.224;2023-03-04T00:16:47;39.60;;;10.60;;
75246;SDS011;63844;50.042;19.224;2023-03-04T00:21:41;44.40;;;12.90;;
75246;SDS011;63844;50.042;19.224;2023-03-04T00:24:07;38.90;;;13.10;;
75246;SDS011;63844;50.042;19.224;2023-03-04T00:26:34;40.20;;;12.20;;
75246;SDS011;63844;50.042;19.224;2023-03-04T00:29:00;25.20;;;6.80;;
75246;SDS011;63844;50.042;19.224;2023-03-04T00:31:27;49.10;;;13.70;;
75246;SDS011;63844;50.042;19.224;2023-03-04T00:33:53;16.20;;;4.90;;
75246;SDS011;63844;50.042;19.224;2023-03-04T00:36:19;27.00;;;9.00;;
75246;SDS011;63844;50.042;19.224;2023-03-04T00:38:46;40.00;;;12.20;;
75246;SDS011;63844;50.042;19.224;2023-03-04T00:41:12;43.70;;;12.60;;
75246;SDS011;63844;50.042;19.224;2023-03-04T00:43:39;42.30;;;11.20;;
75246;SDS011;63844;50.042;19.224;2023-03-04T00:46:06;42.80;;;12.10;;
75246;SDS011;63844;50.042;19.224;2023-03-04T00:48:32;38.70;;;11.30;;
75246;SDS011;63844;50.042;19.224;2023-03-04T00:50:58;47.90;;;13.20;;
75246;SDS011;63844;50.042;19.224;2023-03-04T00:53:25;36.00;;;10.70;;
75246;SDS011;63844;50.042;19.224;2023-03-04T00:55:51;37.90;;;12.50;;
75246;SDS011;63844;50.042;19.224;2023-03-04T00:58:18;44.10;;;13.60;;
75246;SDS011;63844;50.042;19.224;2023-03-04T01:00:44;25.70;;;7.80;;
75246;SDS011;63844;50.042;19.224;2023-03-04T01:03:11;35.20;;;10.20;;
75246;SDS011;63844;50.042;19.224;2023-03-04T01:05:38;38.10;;;11.10;;
75246;SDS011;63844;50.042;19.224;2023-03-04T01:08:05;44.90;;;12.60;;
75246;SDS011;63844;50.042;19.224;2023-03-04T01:10:31;45.90;;;13.20;;
75246;SDS011;63844;50.042;19.224;2023-03-04T01:12:58;40.50;;;11.50;;
75246;SDS011;63844;50.042;19.224;2023-03-04T01:15:24;40.60;;;11.20;;
75246;SDS011;63844;50.042;19.224;2023-03-04T01:17:51;39.50;;;11.70;;
75246;SDS011;63844;50.042;19.224;2023-03-04T01:20:17;34.10;;;10.10;;
75246;SDS011;63844;50.042;19.224;2023-03-04T01:22:44;35.80;;;9.30;;
75246;SDS011;63844;50.042;19.224;2023-03-04T01:25:10;37.80;;;11.00;;
75246;SDS011;63844;50.042;19.224;2023-03-04T01:27:37;42.40;;;12.90;;
75246;SDS011;63844;50.042;19.224;2023-03-04T01:30:04;39.20;;;11.30;;
75246;SDS011;63844;50.042;19.224;2023-03-04T01:32:31;38.10;;;13.00;;
75246;SDS011;63844;50.042;19.224;2023-03-04T01:34:57;26.60;;;7.90;;
75246;SDS011;63844;50.042;19.224;2023-03-04T01:37:24;32.20;;;9.70;;
75246;SDS011;63844;50.042;19.224;2023-03-04T01:39:50;25.60;;;7.60;;
75246;SDS011;63844;50.042;19.224;2023-03-04T01:42:18;40.60;;;12.90;;
75246;SDS011;63844;50.042;19.224;2023-03-04T01:44:46;26.20;;;8.50;;
75246;SDS011;63844;50.042;19.224;2023-03-04T01:47:14;28.70;;;8.80;;
75246;SDS011;63844;50.042;19.224;2023-03-04T01:49:41;35.40;;;10.40;;
75246;SDS011;63844;50.042;19.224;2023-03-04T01:52:11;34.00;;;10.20;;
75246;SDS011;63844;50.042;19.224;2023-03-04T01:54:39;33.50;;;9.80;;
75246;SDS011;63844;50.042;19.224;2023-03-04T01:57:22;36.00;;;11.00;;
75246;SDS011;63844;50.042;19.224;2023-03-04T02:02:40;31.20;;;9.90;;
75246;SDS011;63844;50.042;19.224;2023-03-04T02:05:07;35.60;;;10.40;;
75246;SDS011;63844;50.042;19.224;2023-03-04T02:10:01;30.50;;;9.60;;
75246;SDS011;63844;50.042;19.224;2023-03-04T02:12:29;34.50;;;10.10;;
75246;SDS011;63844;50.042;19.224;2023-03-04T02:14:55;25.30;;;8.70;;
75246;SDS011;63844;50.042;19.224;2023-03-04T02:17:26;28.30;;;9.10;;
75246;SDS011;63844;50.042;19.224;2023-03-04T02:20:15;31.50;;;10.30;;
75246;SDS011;63844;50.042;19.224;2023-03-04T02:23:00;30.50;;;8.60;;
75246;SDS011;63844;50.042;19.224;2023-03-04T02:28:49;32.50;;;9.10;;
75246;SDS011;63844;50.042;19.224;2023-03-04T02:31:37;27.00;;;7.10;;
75246;SDS011;63844;50.042;19.224;2023-03-04T02:34:16;36.60;;;11.10;;
75246;SDS011;63844;50.042;19.224;2023-03-04T02:36:47;30.00;;;9.60;;
75246;SDS011;63844;50.042;19.224;2023-03-04T02:41:46;29.90;;;8.90;;
75246;SDS011;63844;50.042;19.224;2023-03-04T02:44:17;22.40;;;6.50;;
75246;SDS011;63844;50.042;19.224;2023-03-04T02:46:46;37.50;;;9.80;;
75246;SDS011;63844;50.042;19.224;2023-03-04T02:49:14;31.50;;;10.30;;
75246;SDS011;63844;50.042;19.224;2023-03-04T02:51:41;31.70;;;9.70;;
75246;SDS011;63844;50.042;19.224;2023-03-04T02:54:17;33.60;;;10.70;;
75246;SDS011;63844;50.042;19.224;2023-03-04T02:56:46;16.40;;;6.30;;
75246;SDS011;63844;50.042;19.224;2023-03-04T02:59:17;29.80;;;9.00;;
75246;SDS011;63844;50.042;19.224;2023-03-04T03:01:44;29.20;;;9.10;;
75246;SDS011;63844;50.042;19.224;2023-03-04T03:04:11;30.20;;;10.30;;
75246;SDS011;63844;50.042;19.224;2023-03-04T03:06:38;25.80;;;8.90;;
75246;SDS011;63844;50.042;19.224;2023-03-04T03:09:05;31.40;;;9.50;;
75246;SDS011;63844;50.042;19.224;2023-03-04T03:11:32;30.30;;;9.40;;
75246;SDS011;63844;50.042;19.224;2023-03-04T03:13:59;29.30;;;7.60;;
75246;SDS011;63844;50.042;19.224;2023-03-04T03:16:26;29.80;;;9.70;;
75246;SDS011;63844;50.042;19.224;2023-03-04T03:18:53;38.10;;;11.30;;
75246;SDS011;63844;50.042;19.224;2023-03-04T03:21:19;31.10;;;9.90;;
75246;SDS011;63844;50.042;19.224;2023-03-04T03:23:46;29.90;;;9.60;;
75246;SDS011;63844;50.042;19.224;2023-03-04T03:26:13;33.50;;;11.00;;
75246;SDS011;63844;50.042;19.224;2023-03-04T03:28:39;33.50;;;10.30;;
75246;SDS011;63844;50.042;19.224;2023-03-04T03:31:06;24.00;;;7.90;;
75246;SDS011;63844;50.042;19.224;2023-03-04T03:33:33;28.80;;;9.70;;
75246;SDS011;63844;50.042;19.224;2023-03-04T03:35:59;18.30;;;6.50;;
75246;SDS011;63844;50.042;19.224;2023-03-04T03:38:26;29.20;;;10.40;;
75246;SDS011;63844;50.042;19.224;2023-03-04T03:40:52;28.60;;;9.50;;
75246;SDS011;63844;50.042;19.224;2023-03-04T03:43:19;26.10;;;9.20;;
75246;SDS011;63844;50.042;19.224;2023-03-04T03:45:45;30.70;;;10.50;;
75246;SDS011;63844;50.042;19.224;2023-03-04T03:48:12;26.10;;;8.30;;
75246;SDS011;63844;50.042;19.224;2023-03-04T03:50:38;21.30;;;6.70;;
75246;SDS011;63844;50.042;19.224;2023-03-04T03:53:04;28.60;;;9.90;;
75246;SDS011;63844;50.042;19.224;2023-03-04T03:55:31;32.90;;;10.40;;
75246;SDS011;63844;50.042;19.224;2023-03-04T03:57:58;21.70;;;7.80;;
75246;SDS011;63844;50.042;19.224;2023-03-04T04:00:24;36.00;;;10.70;;
75246;SDS011;63844;50.042;19.224;2023-03-04T04:02:51;31.90;;;10.00;;
75246;SDS011;63844;50.042;19.224;2023-03-04T04:05:20;36.70;;;10.10;;
75246;SDS011;63844;50.042;19.224;2023-03-04T04:07:46;30.20;;;9.50;;
75246;SDS011;63844;50.042;19.224;2023-03-04T04:10:13;30.60;;;9.10;;
75246;SDS011;63844;50.042;19.224;2023-03-04T04:12:39;30.00;;;8.60;;
75246;SDS011;63844;50.042;19.224;2023-03-04T04:15:06;34.80;;;10.70;;
75246;SDS011;63844;50.042;19.224;2023-03-04T04:17:33;34.70;;;10.40;;
75246;SDS011;63844;50.042;19.224;2023-03-04T04:19:59;33.60;;;10.10;;
75246;SDS011;63844;50.042;19.224;2023-03-04T04:22:26;35.80;;;10.20;;
75246;SDS011;63844;50.042;19.224;2023-03-04T04:24:52;33.80;;;10.70;;
75246;SDS011;63844;50.042;19.224;2023-03-04T04:27:19;39.70;;;11.20;;
75246;SDS011;63844;50.042;19.224;2023-03-04T04:29:46;28.20;;;8.50;;
75246;SDS011;63844;50.042;19.224;2023-03-04T04:32:12;41.50;;;12.90;;
75246;SDS011;63844;50.042;19.224;2023-03-04T04:34:38;35.20;;;11.00;;
75246;SDS011;63844;50.042;19.224;2023-03-04T04:37:05;36.90;;;10.90;;
75246;SDS011;63844;50.042;19.224;2023-03-04T04:39:31;35.90;;;11.00;;
75246;SDS011;63844;50.042;19.224;2023-03-04T04:41:58;40.10;;;11.80;;
75246;SDS011;63844;50.042;19.224;2023-03-04T04:44:24;42.70;;;12.70;;
75246;SDS011;63844;50.042;19.224;2023-03-04T04:46:51;33.10;;;9.20;;
75246;SDS011;63844;50.042;19.224;2023-03-04T04:49:17;41.50;;;11.30;;
75246;SDS011;63844;50.042;19.224;2023-03-04T04:51:44;38.60;;;12.10;;
75246;SDS011;63844;50.042;19.224;2023-03-04T04:54:10;24.90;;;6.80;;
75246;SDS011;63844;50.042;19.224;2023-03-04T04:56:39;37.20;;;13.10;;
75246;SDS011;63844;50.042;19.224;2023-03-04T04:59:05;27.00;;;7.10;;
75246;SDS011;63844;50.042;19.224;2023-03-04T05:01:33;37.80;;;11.20;;
75246;SDS011;63844;50.042;19.224;2023-03-04T05:04:00;45.80;;;12.10;;
75246;SDS011;63844;50.042;19.224;2023-03-04T05:06:27;38.40;;;11.20;;
75246;SDS011;63844;50.042;19.224;2023-03-04T05:08:53;34.90;;;11.00;;
75246;SDS011;63844;50.042;19.224;2023-03-04T05:11:20;43.00;;;13.50;;
75246;SDS011;63844;50.042;19.224;2023-03-04T05:13:48;42.50;;;12.80;;
75246;SDS011;63844;50.042;19.224;2023-03-04T05:16:15;32.60;;;10.00;;
75246;SDS011;63844;50.042;19.224;2023-03-04T05:18:42;48.10;;;13.80;;
75246;SDS011;63844;50.042;19.224;2023-03-04T05:21:09;40.70;;;10.40;;
75246;SDS011;63844;50.042;19.224;2023-03-04T05:23:37;34.30;;;11.30;;
75246;SDS011;63844;50.042;19.224;2023-03-04T05:26:05;47.60;;;13.80;;
75246;SDS011;63844;50.042;19.224;2023-03-04T05:28:33;41.60;;;13.20;;
75246;SDS011;63844;50.042;19.224;2023-03-04T05:31:00;34.30;;;10.50;;
75246;SDS011;63844;50.042;19.224;2023-03-04T05:33:27;39.90;;;13.10;;
75246;SDS011;63844;50.042;19.224;2023-03-04T05:35:53;38.50;;;11.90;;
75246;SDS011;63844;50.042;19.224;2023-03-04T05:38:20;48.90;;;16.40;;
75246;SDS011;63844;50.042;19.224;2023-03-04T05:40:48;48.30;;;13.10;;
75246;SDS011;63844;50.042;19.224;2023-03-04T05:43:14;46.00;;;13.80;;
75246;SDS011;63844;50.042;19.224;2023-03-04T05:45:42;45.70;;;14.00;;
75246;SDS011;63844;50.042;19.224;2023-03-04T05:48:09;50.00;;;15.40;;
75246;SDS011;63844;50.042;19.224;2023-03-04T05:50:35;43.80;;;13.50;;
75246;SDS011;63844;50.042;19.224;2023-03-04T05:53:02;25.30;;;8.20;;
75246;SDS011;63844;50.042;19.224;2023-03-04T05:55:28;56.10;;;18.10;;
75246;SDS011;63844;50.042;19.224;2023-03-04T05:57:55;55.00;;;15.70;;
75246;SDS011;63844;50.042;19.224;2023-03-04T06:00:22;51.00;;;15.90;;
75246;SDS011;63844;50.042;19.224;2023-03-04T06:02:49;29.40;;;8.60;;
75246;SDS011;63844;50.042;19.224;2023-03-04T06:05:16;53.50;;;14.30;;
75246;SDS011;63844;50.042;19.224;2023-03-04T06:07:43;50.40;;;15.90;;
75246;SDS011;63844;50.042;19.224;2023-03-04T06:10:11;44.90;;;13.00;;
75246;SDS011;63844;50.042;19.224;2023-03-04T06:12:41;51.90;;;17.50;;
75246;SDS011;63844;50.042;19.224;2023-03-04T06:15:09;50.10;;;15.30;;
75246;SDS011;63844;50.042;19.224;2023-03-04T06:17:36;52.40;;;14.30;;
75246;SDS011;63844;50.042;19.224;2023-03-04T06:20:04;29.70;;;7.70;;
75246;SDS011;63844;50.042;19.224;2023-03-04T06:22:32;51.20;;;17.20;;
75246;SDS011;63844;50.042;19.224;2023-03-04T06:24:59;47.30;;;14.90;;
75246;SDS011;63844;50.042;19.224;2023-03-04T06:27:26;25.70;;;7.70;;
75246;SDS011;63844;50.042;19.224;2023-03-04T06:29:53;45.60;;;14.10;;
75246;SDS011;63844;50.042;19.224;2023-03-04T06:32:19;34.40;;;11.20;;
75246;SDS011;63844;50.042;19.224;2023-03-04T06:34:46;51.50;;;14.80;;
75246;SDS011;63844;50.042;19.224;2023-03-04T06:37:12;55.40;;;14.80;;
75246;SDS011;63844;50.042;19.224;2023-03-04T06:39:39;49.60;;;14.70;;
75246;SDS011;63844;50.042;19.224;2023-03-04T06:42:06;34.10;;;11.30;;
75246;SDS011;63844;50.042;19.224;2023-03-04T06:44:32;51.00;;;15.30;;
75246;SDS011;63844;50.042;19.224;2023-03-04T06:46:59;56.00;;;16.90;;
75246;SDS011;63844;50.042;19.224;2023-03-04T06:49:25;46.00;;;15.20;;
75246;SDS011;63844;50.042;19.224;2023-03-04T06:51:51;48.60;;;15.90;;
75246;SDS011;63844;50.042;19.224;2023-03-04T06:54:18;52.00;;;14.90;;
75246;SDS011;63844;50.042;19.224;2023-03-04T06:56:45;51.70;;;15.60;;
75246;SDS011;63844;50.042;19.224;2023-03-04T06:59:12;40.80;;;11.70;;
75246;SDS011;63844;50.042;19.224;2023-03-04T07:01:38;42.00;;;13.50;;
75246;SDS011;63844;50.042;19.224;2023-03-04T07:04:05;42.10;;;13.10;;
75246;SDS011;63844;50.042;19.224;2023-03-04T07:06:31;53.60;;;16.20;;
75246;SDS011;63844;50.042;19.224;2023-03-04T07:08:58;56.90;;;14.90;;
75246;SDS011;63844;50.042;19.224;2023-03-04T07:11:24;61.70;;;19.80;;
75246;SDS011;63844;50.042;19.224;2023-03-04T07:13:51;35.40;;;11.30;;
75246;SDS011;63844;50.042;19.224;2023-03-04T07:16:19;68.30;;;20.10;;
75246;SDS011;63844;50.042;19.224;2023-03-04T07:18:47;60.60;;;16.80;;
75246;SDS011;63844;50.042;19.224;2023-03-04T07:21:14;56.50;;;16.40;;
75246;SDS011;63844;50.042;19.224;2023-03-04T07:23:42;39.60;;;12.40;;
75246;SDS011;63844;50.042;19.224;2023-03-04T07:26:09;61.40;;;17.50;;
75246;SDS011;63844;50.042;19.224;2023-03-04T07:28:37;56.50;;;15.90;;
75246;SDS011;63844;50.042;19.224;2023-03-04T07:31:07;50.50;;;15.60;;
75246;SDS011;63844;50.042;19.224;2023-03-04T07:33:35;41.40;;;12.00;;
75246;SDS011;63844;50.042;19.224;2023-03-04T07:36:02;57.50;;;16.40;;
75246;SDS011;63844;50.042;19.224;2023-03-04T07:38:28;53.30;;;14.50;;
75246;SDS011;63844;50.042;19.224;2023-03-04T07:40:56;48.30;;;15.10;;
75246;SDS011;63844;50.042;19.224;2023-03-04T07:43:23;59.00;;;17.90;;
75246;SDS011;63844;50.042;19.224;2023-03-04T07:45:50;59.70;;;17.90;;
75246;SDS011;63844;50.042;19.224;2023-03-04T07:48:16;60.00;;;17.50;;
75246;SDS011;63844;50.042;19.224;2023-03-04T07:50:43;56.90;;;18.30;;
75246;SDS011;63844;50.042;19.224;2023-03-04T07:53:09;50.10;;;15.80;;
75246;SDS011;63844;50.042;19.224;2023-03-04T07:55:36;42.90;;;15.20;;
75246;SDS011;63844;50.042;19.224;2023-03-04T07:58:02;60.10;;;21.80;;
75246;SDS011;63844;50.042;19.224;2023-03-04T08:00:28;49.70;;;17.50;;
75246;SDS011;63844;50.042;19.224;2023-03-04T08:02:55;56.20;;;15.70;;
75246;SDS011;63844;50.042;19.224;2023-03-04T08:05:22;47.00;;;17.90;;
75246;SDS011;63844;50.042;19.224;2023-03-04T08:07:48;41.60;;;12.90;;
75246;SDS011;63844;50.042;19.224;2023-03-04T08:10:15;45.70;;;13.20;;
75246;SDS011;63844;50.042;19.224;2023-03-04T08:12:42;42.30;;;14.00;;
75246;SDS011;63844;50.042;19.224;2023-03-04T08:15:08;49.90;;;15.80;;
75246;SDS011;63844;50.042;19.224;2023-03-04T08:17:35;41.90;;;14.90;;
75246;SDS011;63844;50.042;19.224;2023-03-04T08:20:02;21.00;;;6.80;;
75246;SDS011;63844;50.042;19.224;2023-03-04T08:22:28;43.00;;;15.30;;
75246;SDS011;63844;50.042;19.224;2023-03-04T08:24:55;35.40;;;15.20;;
75246;SDS011;63844;50.042;19.224;2023-03-04T08:27:21;44.50;;;15.00;;
75246;SDS011;63844;50.042;19.224;2023-03-04T08:29:48;41.80;;;13.90;;
75246;SDS011;63844;50.042;19.224;2023-03-04T08:32:14;38.90;;;15.50;;
75246;SDS011;63844;50.042;19.224;2023-03-04T08:34:41;35.50;;;13.70;;
75246;SDS011;63844;50.042;19.224;2023-03-04T08:37:07;46.40;;;16.80;;
75246;SDS011;63844;50.042;19.224;2023-03-04T08:39:34;32.60;;;11.50;;
75246;SDS011;63844;50.042;19.224;2023-03-04T08:42:01;38.30;;;12.40;;
75246;SDS011;63844;50.042;19.224;2023-03-04T08:44:28;23.10;;;8.20;;
75246;SDS011;63844;50.042;19.224;2023-03-04T08:46:55;35.50;;;11.90;;
75246;SDS011;63844;50.042;19.224;2023-03-04T08:49:21;22.90;;;9.40;;
75246;SDS011;63844;50.042;19.224;2023-03-04T08:51:48;36.00;;;12.60;;
75246;SDS011;63844;50.042;19.224;2023-03-04T08:54:14;41.20;;;14.40;;
75246;SDS011;63844;50.042;19.224;2023-03-04T08:56:41;46.80;;;15.90;;
75246;SDS011;63844;50.042;19.224;2023-03-04T08:59:07;42.50;;;14.30;;
75246;SDS011;63844;50.042;19.224;2023-03-04T09:01:34;40.10;;;13.70;;
75246;SDS011;63844;50.042;19.224;2023-03-04T09:04:00;37.30;;;13.20;;
75246;SDS011;63844;50.042;19.224;2023-03-04T09:06:27;43.80;;;16.30;;
75246;SDS011;63844;50.042;19.224;2023-03-04T09:08:53;37.60;;;13.20;;
75246;SDS011;63844;50.042;19.224;2023-03-04T09:11:19;44.10;;;14.70;;
75246;SDS011;63844;50.042;19.224;2023-03-04T09:13:46;42.10;;;17.10;;
75246;SDS011;63844;50.042;19.224;2023-03-04T09:16:13;43.70;;;17.10;;
75246;SDS011;63844;50.042;19.224;2023-03-04T09:18:41;36.40;;;12.30;;
75246;SDS011;63844;50.042;19.224;2023-03-04T09:21:08;41.10;;;13.90;;
75246;SDS011;63844;50.042;19.224;2023-03-04T09:26:12;32.70;;;12.00;;
75246;SDS011;63844;50.042;19.224;2023-03-04T09:28:40;46.30;;;15.90;;
75246;SDS011;63844;50.042;19.224;2023-03-04T09:31:10;44.60;;;14.40;;
75246;SDS011;63844;50.042;19.224;2023-03-04T09:33:38;43.40;;;15.10;;
75246;SDS011;63844;50.042;19.224;2023-03-04T09:36:07;42.90;;;15.30;;
75246;SDS011;63844;50.042;19.224;2023-03-04T09:38:35;49.00;;;18.00;;
75246;SDS011;63844;50.042;19.224;2023-03-04T09:41:05;46.50;;;15.30;;
75246;SDS011;63844;50.042;19.224;2023-03-04T09:43:34;52.20;;;17.90;;
75246;SDS011;63844;50.042;19.224;2023-03-04T09:46:06;46.80;;;15.80;;
75246;SDS011;63844;50.042;19.224;2023-03-04T09:48:44;45.90;;;17.90;;
75246;SDS011;63844;50.042;19.224;2023-03-04T09:54:07;45.80;;;16.40;;
75246;SDS011;63844;50.042;19.224;2023-03-04T09:56:55;45.20;;;14.60;;
75246;SDS011;63844;50.042;19.224;2023-03-04T09:59:34;50.10;;;19.70;;
75246;SDS011;63844;50.042;19.224;2023-03-04T10:02:22;50.70;;;17.20;;
75246;SDS011;63844;50.042;19.224;2023-03-04T10:05:05;50.30;;;16.50;;
75246;SDS011;63844;50.042;19.224;2023-03-04T10:07:34;51.00;;;17.50;;
75246;SDS011;63844;50.042;19.224;2023-03-04T10:10:15;46.70;;;14.90;;
75246;SDS011;63844;50.042;19.224;2023-03-04T10:12:47;40.80;;;12.70;;
75246;SDS011;63844;50.042;19.224;2023-03-04T10:17:50;49.00;;;16.30;;
75246;SDS011;63844;50.042;19.224;2023-03-04T10:20:21;52.60;;;19.60;;
75246;SDS011;63844;50.042;19.224;2023-03-04T10:23:13;42.50;;;15.00;;
75246;SDS011;63844;50.042;19.224;2023-03-04T10:25:44;27.50;;;9.70;;
75246;SDS011;63844;50.042;19.224;2023-03-04T10:28:15;42.30;;;13.90;;
75246;SDS011;63844;50.042;19.224;2023-03-04T10:31:04;49.50;;;16.50;;
75246;SDS011;63844;50.042;19.224;2023-03-04T10:33:38;39.90;;;14.00;;
75246;SDS011;63844;50.042;19.224;2023-03-04T10:38:56;50.80;;;17.90;;
75246;SDS011;63844;50.042;19.224;2023-03-04T10:41:26;46.30;;;15.50;;
75246;SDS011;63844;50.042;19.224;2023-03-04T10:46:40;59.50;;;20.70;;
75246;SDS011;63844;50.042;19.224;2023-03-04T10:49:09;42.90;;;15.60;;
75246;SDS011;63844;50.042;19.224;2023-03-04T10:51:43;41.80;;;14.90;;
75246;SDS011;63844;50.042;19.224;2023-03-04T10:57:18;46.90;;;17.00;;
75246;SDS011;63844;50.042;19.224;2023-03-04T11:02:44;49.60;;;17.40;;
75246;SDS011;63844;50.042;19.224;2023-03-04T11:05:17;40.70;;;15.50;;
75246;SDS011;63844;50.042;19.224;2023-03-04T11:07:49;43.10;;;14.40;;
75246;SDS011;63844;50.042;19.224;2023-03-04T11:13:02;44.10;;;15.80;;
75246;SDS011;63844;50.042;19.224;2023-03-04T11:16:25;24.50;;;9.70;;
75246;SDS011;63844;50.042;19.224;2023-03-04T11:18:52;45.70;;;14.60;;
75246;SDS011;63844;50.042;19.224;2023-03-04T11:21:24;36.30;;;12.60;;
75246;SDS011;63844;50.042;19.224;2023-03-04T11:32:30;35.10;;;13.10;;
75246;SDS011;63844;50.042;19.224;2023-03-04T11:35:20;32.50;;;12.70;;
75246;SDS011;63844;50.042;19.224;2023-03-04T11:38:00;40.40;;;13.60;;
75246;SDS011;63844;50.042;19.224;2023-03-04T11:40:37;38.10;;;13.80;;
75246;SDS011;63844;50.042;19.224;2023-03-04T11:48:52;32.70;;;11.90;;
75246;SDS011;63844;50.042;19.224;2023-03-04T11:51:42;38.30;;;12.60;;
75246;SDS011;63844;50.042;19.224;2023-03-04T11:54:30;33.80;;;13.50;;
75246;SDS011;63844;50.042;19.224;2023-03-04T12:03:11;33.10;;;12.50;;
75246;SDS011;63844;50.042;19.224;2023-03-04T12:14:24;32.60;;;12.20;;
75246;SDS011;63844;50.042;19.224;2023-03-04T12:27:50;23.30;;;8.80;;
75246;SDS011;63844;50.042;19.224;2023-03-04T12:36:06;35.30;;;13.70;;
75246;SDS011;63844;50.042;19.224;2023-03-04T12:38:58;34.10;;;12.40;;
75246;SDS011;63844;50.042;19.224;2023-03-04T12:44:20;32.30;;;10.90;;
75246;SDS011;63844;50.042;19.224;2023-03-04T12:50:12;33.10;;;13.60;;
75246;SDS011;63844;50.042;19.224;2023-03-04T12:52:57;26.90;;;10.50;;
75246;SDS011;63844;50.042;19.224;2023-03-04T12:55:34;35.20;;;14.60;;
75246;SDS011;63844;50.042;19.224;2023-03-04T12:58:03;33.70;;;12.90;;
75246;SDS011;63844;50.042;19.224;2023-03-04T13:09:26;34.20;;;11.50;;
75246;SDS011;63844;50.042;19.224;2023-03-04T13:12:17;24.30;;;8.20;;
75246;SDS011;63844;50.042;19.224;2023-03-04T13:17:35;29.50;;;12.30;;
75246;SDS011;63844;50.042;19.224;2023-03-04T13:23:17;32.10;;;11.20;;
75246;SDS011;63844;50.042;19.224;2023-03-04T13:36:02;27.00;;;10.40;;
75246;SDS011;63844;50.042;19.224;2023-03-04T13:38:35;33.00;;;12.30;;
75246;SDS011;63844;50.042;19.224;2023-03-04T13:41:17;27.70;;;11.80;;
75246;SDS011;63844;50.042;19.224;2023-03-04T13:43:51;31.10;;;12.30;;
75246;SDS011;63844;50.042;19.224;2023-03-04T13:51:26;29.40;;;11.70;;
75246;SDS011;63844;50.042;19.224;2023-03-04T13:54:15;28.60;;;12.00;;
75246;SDS011;63844;50.042;19.224;2023-03-04T13:56:45;31.40;;;12.80;;
75246;SDS011;63844;50.042;19.224;2023-03-04T13:59:19;28.70;;;11.50;;
75246;SDS011;63844;50.042;19.224;2023-03-04T14:01:56;18.50;;;6.50;;
75246;SDS011;63844;50.042;19.224;2023-03-04T14:04:30;27.40;;;11.10;;
75246;SDS011;63844;50.042;19.224;2023-03-04T14:07:00;34.00;;;13.00;;
75246;SDS011;63844;50.042;19.224;2023-03-04T14:09:30;24.70;;;10.40;;
75246;SDS011;63844;50.042;19.224;2023-03-04T14:11:59;26.50;;;11.90;;
75246;SDS011;63844;50.042;19.224;2023-03-04T14:14:30;28.50;;;10.40;;
75246;SDS011;63844;50.042;19.224;2023-03-04T14:17:05;17.80;;;7.50;;
75246;SDS011;63844;50.042;19.224;2023-03-04T14:19:44;24.40;;;10.50;;
75246;SDS011;63844;50.042;19.224;2023-03-04T14:22:22;19.10;;;7.70;;
75246;SDS011;63844;50.042;19.224;2023-03-04T14:24:58;28.20;;;11.20;;
75246;SDS011;63844;50.042;19.224;2023-03-04T14:27:30;31.00;;;11.60;;
75246;SDS011;63844;50.042;19.224;2023-03-04T14:30:01;25.30;;;10.60;;
75246;SDS011;63844;50.042;19.224;2023-03-04T14:32:30;29.00;;;10.20;;
75246;SDS011;63844;50.042;19.224;2023-03-04T14:35:00;21.30;;;8.40;;
75246;SDS011;63844;50.042;19.224;2023-03-04T14:37:32;26.50;;;10.40;;
75246;SDS011;63844;50.042;19.224;2023-03-04T14:40:09;19.40;;;7.40;;
75246;SDS011;63844;50.042;19.224;2023-03-04T14:42:54;27.20;;;10.70;;
75246;SDS011;63844;50.042;19.224;2023-03-04T14:45:26;23.40;;;9.80;;
75246;SDS011;63844;50.042;19.224;2023-03-04T14:47:56;21.70;;;9.60;;
75246;SDS011;63844;50.042;19.224;2023-03-04T14:55:33;21.60;;;8.40;;
75246;SDS011;63844;50.042;19.224;2023-03-04T14:58:19;8.10;;;3.40;;
75246;SDS011;63844;50.042;19.224;2023-03-04T15:00:48;23.20;;;8.60;;
75246;SDS011;63844;50.042;19.224;2023-03-04T15:03:28;22.80;;;8.20;;
75246;SDS011;63844;50.042;19.224;2023-03-04T15:05:55;25.50;;;10.50;;
75246;SDS011;63844;50.042;19.224;2023-03-04T15:08:36;24.30;;;11.00;;
75246;SDS011;63844;50.042;19.224;2023-03-04T15:11:04;20.30;;;7.90;;
75246;SDS011;63844;50.042;19.224;2023-03-04T15:13:43;23.30;;;10.30;;
75246;SDS011;63844;50.042;19.224;2023-03-04T15:16:14;27.00;;;10.20;;
75246;SDS011;63844;50.042;19.224;2023-03-04T15:18:56;28.40;;;11.80;;
75246;SDS011;63844;50.042;19.224;2023-03-04T15:24:07;25.60;;;11.10;;
75246;SDS011;63844;50.042;19.224;2023-03-04T15:26:37;28.50;;;10.80;;
75246;SDS011;63844;50.042;19.224;2023-03-04T15:29:12;21.90;;;8.90;;
75246;SDS011;63844;50.042;19.224;2023-03-04T15:31:40;28.90;;;9.80;;
75246;SDS011;63844;50.042;19.224;2023-03-04T15:34:13;28.70;;;9.70;;
75246;SDS011;63844;50.042;19.224;2023-03-04T15:36:44;28.90;;;11.00;;
75246;SDS011;63844;50.042;19.224;2023-03-04T15:39:13;30.00;;;11.20;;
75246;SDS011;63844;50.042;19.224;2023-03-04T15:41:41;28.60;;;11.30;;
75246;SDS011;63844;50.042;19.224;2023-03-04T15:44:09;25.70;;;9.30;;
75246;SDS011;63844;50.042;19.224;2023-03-04T15:46:37;31.00;;;11.00;;
75246;SDS011;63844;50.042;19.224;2023-03-04T15:49:03;29.40;;;10.50;;
75246;SDS011;63844;50.042;19.224;2023-03-04T15:51:30;30.90;;;12.60;;
75246;SDS011;63844;50.042;19.224;2023-03-04T15:53:57;25.50;;;9.40;;
75246;SDS011;63844;50.042;19.224;2023-03-04T15:56:26;25.80;;;11.90;;
75246;SDS011;63844;50.042;19.224;2023-03-04T15:59:03;19.30;;;7.80;;
75246;SDS011;63844;50.042;19.224;2023-03-04T16:01:35;27.10;;;11.40;;
75246;SDS011;63844;50.042;19.224;2023-03-04T16:04:02;28.10;;;12.20;;
75246;SDS011;63844;50.042;19.224;2023-03-04T16:06:29;30.40;;;11.30;;
75246;SDS011;63844;50.042;19.224;2023-03-04T16:08:57;28.10;;;11.10;;
75246;SDS011;63844;50.042;19.224;2023-03-04T16:11:25;29.80;;;11.40;;
75246;SDS011;63844;50.042;19.224;2023-03-04T16:13:57;22.50;;;9.00;;
75246;SDS011;63844;50.042;19.224;2023-03-04T16:16:23;26.70;;;10.70;;
75246;SDS011;63844;50.042;19.224;2023-03-04T16:18:50;26.80;;;9.10;;
75246;SDS011;63844;50.042;19.224;2023-03-04T16:21:17;25.60;;;9.70;;
75246;SDS011;63844;50.042;19.224;2023-03-04T16:23:46;24.90;;;10.00;;
75246;SDS011;63844;50.042;19.224;2023-03-04T16:26:16;30.70;;;12.20;;
75246;SDS011;63844;50.042;19.224;2023-03-04T16:28:44;19.50;;;7.20;;
75246;SDS011;63844;50.042;19.224;2023-03-04T16:31:11;24.40;;;8.10;;